sensor_id;sensor_type;location;lat;lon;timestamp;pressure;altitude;pressure_sealevel;temperature;humidity
58223;BME280;44020;50.890;15.796;2023-04-05T00:02:26;98295.84;;;-3.32;62.56
58223;BME280;44020;50.890;15.796;2023-04-05T00:04:56;98297.59;;;-3.33;62.49
58223;BME280;44020;50.890;15.796;2023-04-05T00:07:24;98294.64;;;-3.36;62.50
58223;BME280;44020;50.890;15.796;2023-04-05T00:09:52;98295.34;;;-3.36;62.43
58223;BME280;44020;50.890;15.796;2023-04-05T00:12:20;98290.83;;;-3.35;62.38
58223;BME280;44020;50.890;15.796;2023-04-05T00:14:47;98293.48;;;-3.44;62.09
58223;BME280;44020;50.890;15.796;2023-04-05T00:17:15;98292.45;;;-3.48;62.32
58223;BME280;44020;50.890;15.796;2023-04-05T00:19:43;98292.11;;;-3.52;62.39
58223;BME280;44020;50.890;15.796;2023-04-05T00:22:11;98289.17;;;-3.54;62.55
58223;BME280;44020;50.890;15.796;2023-04-05T00:24:37;98285.89;;;-3.58;62.52
58223;BME280;44020;50.890;15.796;2023-04-05T00:27:08;98287.81;;;-3.59;62.72
58223;BME280;44020;50.890;15.796;2023-04-05T00:29:35;98285.38;;;-3.57;62.91
58223;BME280;44020;50.890;15.796;2023-04-05T00:32:03;98278.23;;;-3.55;63.02
58223;BME280;44020;50.890;15.796;2023-04-05T00:34:30;98281.02;;;-3.55;62.96
58223;BME280;44020;50.890;15.796;2023-04-05T00:36:59;98278.77;;;-3.55;63.30
58223;BME280;44020;50.890;15.796;2023-04-05T00:39:27;98274.40;;;-3.53;63.13
58223;BME280;44020;50.890;15.796;2023-04-05T00:41:54;98276.14;;;-3.52;63.16
58223;BME280;44020;50.890;15.796;2023-04-05T00:44:22;98276.84;;;-3.53;63.16
58223;BME280;44020;50.890;15.796;2023-04-05T00:46:49;98275.45;;;-3.54;63.36
58223;BME280;44020;50.890;15.796;2023-04-05T00:49:17;98273.89;;;-3.53;63.37
58223;BME280;44020;50.890;15.796;2023-04-05T00:51:44;98274.56;;;-3.51;63.46
58223;BME280;44020;50.890;15.796;2023-04-05T00:54:12;98273.35;;;-3.51;63.40
58223;BME280;44020;50.890;15.796;2023-04-05T00:56:41;98269.71;;;-3.49;63.59
58223;BME280;44020;50.890;15.796;2023-04-05T00:59:08;98268.14;;;-3.49;63.43
58223;BME280;44020;50.890;15.796;2023-04-05T01:01:36;98265.20;;;-3.50;63.49
58223;BME280;44020;50.890;15.796;2023-04-05T01:04:06;98261.73;;;-3.49;63.80
58223;BME280;44020;50.890;15.796;2023-04-05T01:06:50;98256.84;;;-3.46;63.95
58223;BME280;44020;50.890;15.796;2023-04-05T01:12:00;98255.23;;;-3.39;64.03
58223;BME280;44020;50.890;15.796;2023-04-05T01:14:28;98251.56;;;-3.35;64.14
58223;BME280;44020;50.890;15.796;2023-04-05T01:16:56;98250.67;;;-3.32;64.18
58223;BME280;44020;50.890;15.796;2023-04-05T01:19:27;98245.80;;;-3.30;64.11
58223;BME280;44020;50.890;15.796;2023-04-05T01:22:10;98244.91;;;-3.29;63.99
58223;BME280;44020;50.890;15.796;2023-04-05T01:24:50;98240.73;;;-3.28;64.23
58223;BME280;44020;50.890;15.796;2023-04-05T01:27:30;98243.16;;;-3.25;64.19
58223;BME280;44020;50.890;15.796;2023-04-05T01:30:39;98236.89;;;-3.24;64.37
58223;BME280;44020;50.890;15.796;2023-04-05T01:35:40;98225.16;;;-3.15;64.50
58223;BME280;44020;50.890;15.796;2023-04-05T01:38:10;98219.61;;;-3.11;64.64
58223;BME280;44020;50.890;15.796;2023-04-05T01:40:41;98218.54;;;-3.09;64.56
58223;BME280;44020;50.890;15.796;2023-04-05T01:43:15;98222.54;;;-3.08;64.67
58223;BME280;44020;50.890;15.796;2023-04-05T01:45:43;98217.64;;;-3.06;64.82
58223;BME280;44020;50.890;15.796;2023-04-05T01:48:11;98223.54;;;-3.03;64.66
58223;BME280;44020;50.890;15.796;2023-04-05T01:50:39;98223.35;;;-3.02;65.07
58223;BME280;44020;50.890;15.796;2023-04-05T01:53:07;98226.11;;;-2.99;64.98
58223;BME280;44020;50.890;15.796;2023-04-05T01:55:35;98224.89;;;-2.99;64.74
58223;BME280;44020;50.890;15.796;2023-04-05T01:58:03;98223.52;;;-3.01;64.81
58223;BME280;44020;50.890;15.796;2023-04-05T02:00:31;98222.27;;;-3.00;64.97
58223;BME280;44020;50.890;15.796;2023-04-05T02:02:58;98220.55;;;-2.99;64.88
58223;BME280;44020;50.890;15.796;2023-04-05T02:05:26;98220.54;;;-2.98;65.17
58223;BME280;44020;50.890;15.796;2023-04-05T02:07:53;98218.09;;;-2.96;65.13
58223;BME280;44020;50.890;15.796;2023-04-05T02:10:21;98213.20;;;-2.94;65.10
58223;BME280;44020;50.890;15.796;2023-04-05T02:12:48;98216.48;;;-2.91;65.12
58223;BME280;44020;50.890;15.796;2023-04-05T02:15:15;98218.21;;;-2.91;64.83
58223;BME280;44020;50.890;15.796;2023-04-05T02:17:43;98220.34;;;-2.95;64.94
58223;BME280;44020;50.890;15.796;2023-04-05T02:20:13;98218.10;;;-2.97;64.85
58223;BME280;44020;50.890;15.796;2023-04-05T02:22:41;98217.95;;;-3.00;64.70
58223;BME280;44020;50.890;15.796;2023-04-05T02:25:11;98218.49;;;-3.04;64.70
58223;BME280;44020;50.890;15.796;2023-04-05T02:27:39;98217.16;;;-3.11;64.65
58223;BME280;44020;50.890;15.796;2023-04-05T02:30:07;98214.40;;;-3.13;65.04
58223;BME280;44020;50.890;15.796;2023-04-05T02:32:35;98214.57;;;-3.13;65.11
58223;BME280;44020;50.890;15.796;2023-04-05T02:35:03;98209.34;;;-3.11;65.23
58223;BME280;44020;50.890;15.796;2023-04-05T02:37:30;98210.21;;;-3.12;65.04
58223;BME280;44020;50.890;15.796;2023-04-05T02:39:58;98206.44;;;-3.18;64.81
58223;BME280;44020;50.890;15.796;2023-04-05T02:42:26;98205.11;;;-3.25;64.64
58223;BME280;44020;50.890;15.796;2023-04-05T02:44:53;98200.61;;;-3.28;65.00
58223;BME280;44020;50.890;15.796;2023-04-05T02:47:21;98199.91;;;-3.29;65.19
58223;BME280;44020;50.890;15.796;2023-04-05T02:49:49;98202.37;;;-3.31;65.07
58223;BME280;44020;50.890;15.796;2023-04-05T02:52:16;98202.05;;;-3.36;64.98
58223;BME280;44020;50.890;15.796;2023-04-05T02:54:44;98197.73;;;-3.38;65.06
58223;BME280;44020;50.890;15.796;2023-04-05T02:57:12;98196.88;;;-3.41;64.98
58223;BME280;44020;50.890;15.796;2023-04-05T02:59:40;98197.08;;;-3.43;64.91
58223;BME280;44020;50.890;15.796;2023-04-05T03:02:08;98196.72;;;-3.44;65.12
58223;BME280;44020;50.890;15.796;2023-04-05T03:04:37;98197.59;;;-3.46;64.99
58223;BME280;44020;50.890;15.796;2023-04-05T03:07:04;98196.08;;;-3.51;64.76
58223;BME280;44020;50.890;15.796;2023-04-05T03:09:31;98191.05;;;-3.54;65.17
58223;BME280;44020;50.890;15.796;2023-04-05T03:11:59;98194.00;;;-3.54;65.15
58223;BME280;44020;50.890;15.796;2023-04-05T03:14:28;98188.96;;;-3.54;65.28
58223;BME280;44020;50.890;15.796;2023-04-05T03:16:55;98188.44;;;-3.53;65.02
58223;BME280;44020;50.890;15.796;2023-04-05T03:19:23;98188.09;;;-3.54;64.93
58223;BME280;44020;50.890;15.796;2023-04-05T03:21:52;98184.98;;;-3.56;64.85
58223;BME280;44020;50.890;15.796;2023-04-05T03:24:19;98185.55;;;-3.65;64.74
58223;BME280;44020;50.890;15.796;2023-04-05T03:26:47;98187.13;;;-3.67;65.02
58223;BME280;44020;50.890;15.796;2023-04-05T03:29:15;98176.72;;;-3.67;65.09
58223;BME280;44020;50.890;15.796;2023-04-05T03:31:43;98169.78;;;-3.67;65.19
58223;BME280;44020;50.890;15.796;2023-04-05T03:34:11;98168.23;;;-3.70;65.08
58223;BME280;44020;50.890;15.796;2023-04-05T03:36:39;98169.11;;;-3.72;65.15
58223;BME280;44020;50.890;15.796;2023-04-05T03:39:09;98171.02;;;-3.73;65.07
58223;BME280;44020;50.890;15.796;2023-04-05T03:41:37;98168.95;;;-3.73;65.23
58223;BME280;44020;50.890;15.796;2023-04-05T03:44:05;98172.95;;;-3.75;65.23
58223;BME280;44020;50.890;15.796;2023-04-05T03:46:33;98171.58;;;-3.78;65.10
58223;BME280;44020;50.890;15.796;2023-04-05T03:49:01;98178.02;;;-3.83;64.96
58223;BME280;44020;50.890;15.796;2023-04-05T03:51:28;98177.05;;;-3.94;64.77
58223;BME280;44020;50.890;15.796;2023-04-05T03:53:56;98180.73;;;-4.04;64.96
58223;BME280;44020;50.890;15.796;2023-04-05T03:56:23;98183.20;;;-4.10;64.90
58223;BME280;44020;50.890;15.796;2023-04-05T03:58:51;98185.64;;;-4.19;64.99
58223;BME280;44020;50.890;15.796;2023-04-05T04:01:18;98187.74;;;-4.25;65.32
58223;BME280;44020;50.890;15.796;2023-04-05T04:03:46;98186.70;;;-4.24;65.42
58223;BME280;44020;50.890;15.796;2023-04-05T04:06:13;98191.21;;;-4.22;65.55
58223;BME280;44020;50.890;15.796;2023-04-05T04:08:42;98193.65;;;-4.23;65.71
58223;BME280;44020;50.890;15.796;2023-04-05T04:11:09;98196.24;;;-4.21;65.71
58223;BME280;44020;50.890;15.796;2023-04-05T04:13:37;98196.41;;;-4.18;65.82
58223;BME280;44020;50.890;15.796;2023-04-05T04:16:05;98196.39;;;-4.15;65.87
58223;BME280;44020;50.890;15.796;2023-04-05T04:18:32;98194.14;;;-4.14;65.80
58223;BME280;44020;50.890;15.796;2023-04-05T04:21:03;98195.35;;;-4.15;65.54
58223;BME280;44020;50.890;15.796;2023-04-05T04:23:33;98193.30;;;-4.19;65.47
58223;BME280;44020;50.890;15.796;2023-04-05T04:26:00;98191.23;;;-4.23;65.27
58223;BME280;44020;50.890;15.796;2023-04-05T04:28:29;98196.45;;;-4.30;65.22
58223;BME280;44020;50.890;15.796;2023-04-05T04:31:00;98198.02;;;-4.30;65.59
58223;BME280;44020;50.890;15.796;2023-04-05T04:33:31;98201.48;;;-4.30;65.48
58223;BME280;44020;50.890;15.796;2023-04-05T04:36:04;98202.00;;;-4.29;65.61
58223;BME280;44020;50.890;15.796;2023-04-05T04:38:32;98202.17;;;-4.29;65.47
58223;BME280;44020;50.890;15.796;2023-04-05T04:41:04;98198.18;;;-4.30;65.54
58223;BME280;44020;50.890;15.796;2023-04-05T04:43:32;98194.55;;;-4.28;65.73
58223;BME280;44020;50.890;15.796;2023-04-05T04:46:03;98195.91;;;-4.25;65.73
58223;BME280;44020;50.890;15.796;2023-04-05T04:48:36;98194.17;;;-4.25;65.65
58223;BME280;44020;50.890;15.796;2023-04-05T04:51:04;98193.82;;;-4.22;65.95
58223;BME280;44020;50.890;15.796;2023-04-05T04:53:32;98196.23;;;-4.19;65.90
58223;BME280;44020;50.890;15.796;2023-04-05T04:55:59;98196.05;;;-4.15;66.05
58223;BME280;44020;50.890;15.796;2023-04-05T04:58:26;98199.15;;;-4.12;66.02
58223;BME280;44020;50.890;15.796;2023-04-05T05:00:54;98196.54;;;-4.10;66.09
58223;BME280;44020;50.890;15.796;2023-04-05T05:03:24;98194.63;;;-4.07;66.12
58223;BME280;44020;50.890;15.796;2023-04-05T05:05:52;98195.49;;;-4.05;66.24
58223;BME280;44020;50.890;15.796;2023-04-05T05:08:19;98193.73;;;-4.01;66.37
58223;BME280;44020;50.890;15.796;2023-04-05T05:10:49;98189.20;;;-3.95;66.45
58223;BME280;44020;50.890;15.796;2023-04-05T05:13:17;98191.25;;;-3.90;66.69
58223;BME280;44020;50.890;15.796;2023-04-05T05:15:45;98189.15;;;-3.85;66.74
58223;BME280;44020;50.890;15.796;2023-04-05T05:18:13;98190.17;;;-3.81;66.76
58223;BME280;44020;50.890;15.796;2023-04-05T05:20:41;98188.77;;;-3.77;66.91
58223;BME280;44020;50.890;15.796;2023-04-05T05:23:08;98192.02;;;-3.73;66.91
58223;BME280;44020;50.890;15.796;2023-04-05T05:25:36;98193.91;;;-3.69;67.06
58223;BME280;44020;50.890;15.796;2023-04-05T05:28:04;98191.64;;;-3.64;66.99
58223;BME280;44020;50.890;15.796;2023-04-05T05:30:31;98189.67;;;-3.56;67.43
58223;BME280;44020;50.890;15.796;2023-04-05T05:32:59;98189.98;;;-3.50;67.38
58223;BME280;44020;50.890;15.796;2023-04-05T05:35:27;98192.20;;;-3.44;67.49
58223;BME280;44020;50.890;15.796;2023-04-05T05:37:54;98191.80;;;-3.38;67.42
58223;BME280;44020;50.890;15.796;2023-04-05T05:40:22;98189.86;;;-3.32;67.49
58223;BME280;44020;50.890;15.796;2023-04-05T05:42:49;98191.55;;;-3.26;67.40
58223;BME280;44020;50.890;15.796;2023-04-05T05:45:17;98189.95;;;-3.21;67.33
58223;BME280;44020;50.890;15.796;2023-04-05T05:47:44;98192.34;;;-3.15;67.37
58223;BME280;44020;50.890;15.796;2023-04-05T05:50:12;98193.00;;;-3.10;67.27
58223;BME280;44020;50.890;15.796;2023-04-05T05:52:40;98190.89;;;-3.06;67.26
58223;BME280;44020;50.890;15.796;2023-04-05T05:55:07;98186.33;;;-3.01;67.32
58223;BME280;44020;50.890;15.796;2023-04-05T05:57:35;98186.96;;;-2.96;67.28
58223;BME280;44020;50.890;15.796;2023-04-05T06:00:05;98183.82;;;-2.94;67.43
58223;BME280;44020;50.890;15.796;2023-04-05T06:02:35;98185.17;;;-2.89;67.61
58223;BME280;44020;50.890;15.796;2023-04-05T06:05:02;98181.46;;;-2.83;67.69
58223;BME280;44020;50.890;15.796;2023-04-05T06:07:33;98180.03;;;-2.79;68.02
58223;BME280;44020;50.890;15.796;2023-04-05T06:10:02;98176.86;;;-2.73;68.03
58223;BME280;44020;50.890;15.796;2023-04-05T06:12:29;98182.17;;;-2.65;67.98
58223;BME280;44020;50.890;15.796;2023-04-05T06:14:56;98179.33;;;-2.59;68.07
58223;BME280;44020;50.890;15.796;2023-04-05T06:17:24;98174.91;;;-2.54;68.09
58223;BME280;44020;50.890;15.796;2023-04-05T06:19:51;98173.64;;;-2.48;68.09
58223;BME280;44020;50.890;15.796;2023-04-05T06:22:18;98170.98;;;-2.42;68.40
58223;BME280;44020;50.890;15.796;2023-04-05T06:24:45;98171.61;;;-2.37;68.19
58223;BME280;44020;50.890;15.796;2023-04-05T06:27:13;98173.48;;;-2.34;68.02
58223;BME280;44020;50.890;15.796;2023-04-05T06:29:41;98172.40;;;-2.30;67.66
58223;BME280;44020;50.890;15.796;2023-04-05T06:32:08;98170.10;;;-2.27;67.51
58223;BME280;44020;50.890;15.796;2023-04-05T06:34:36;98173.23;;;-2.26;67.44
58223;BME280;44020;50.890;15.796;2023-04-05T06:37:03;98170.40;;;-2.23;67.65
58223;BME280;44020;50.890;15.796;2023-04-05T06:39:30;98166.67;;;-2.18;67.73
58223;BME280;44020;50.890;15.796;2023-04-05T06:41:57;98165.39;;;-2.11;67.98
58223;BME280;44020;50.890;15.796;2023-04-05T06:44:24;98165.30;;;-2.04;68.14
58223;BME280;44020;50.890;15.796;2023-04-05T06:46:51;98163.44;;;-1.95;68.17
58223;BME280;44020;50.890;15.796;2023-04-05T06:49:18;98156.90;;;-1.86;68.45
58223;BME280;44020;50.890;15.796;2023-04-05T06:51:45;98154.68;;;-1.78;68.38
58223;BME280;44020;50.890;15.796;2023-04-05T06:54:12;98154.55;;;-1.68;68.58
58223;BME280;44020;50.890;15.796;2023-04-05T06:56:39;98144.33;;;-1.60;68.48
58223;BME280;44020;50.890;15.796;2023-04-05T06:59:07;98142.98;;;-1.52;68.60
58223;BME280;44020;50.890;15.796;2023-04-05T07:01:34;98139.53;;;-1.42;68.54
58223;BME280;44020;50.890;15.796;2023-04-05T07:04:01;98141.50;;;-1.34;68.53
58223;BME280;44020;50.890;15.796;2023-04-05T07:06:28;98141.89;;;-1.26;68.55
58223;BME280;44020;50.890;15.796;2023-04-05T07:08:55;98141.39;;;-1.17;68.68
58223;BME280;44020;50.890;15.796;2023-04-05T07:11:23;98146.49;;;-1.09;68.51
58223;BME280;44020;50.890;15.796;2023-04-05T07:13:50;98145.48;;;-1.01;68.67
58223;BME280;44020;50.890;15.796;2023-04-05T07:16:17;98148.83;;;-0.92;68.82
58223;BME280;44020;50.890;15.796;2023-04-05T07:18:48;98146.77;;;-0.84;68.78
58223;BME280;44020;50.890;15.796;2023-04-05T07:21:15;98149.57;;;-0.75;68.79
58223;BME280;44020;50.890;15.796;2023-04-05T07:23:43;98151.83;;;-0.66;68.70
58223;BME280;44020;50.890;15.796;2023-04-05T07:26:10;98152.40;;;-0.57;68.36
58223;BME280;44020;50.890;15.796;2023-04-05T07:28:38;98149.98;;;-0.50;68.36
58223;BME280;44020;50.890;15.796;2023-04-05T07:31:05;98149.28;;;-0.41;68.49
58223;BME280;44020;50.890;15.796;2023-04-05T07:33:32;98148.59;;;-0.31;68.39
58223;BME280;44020;50.890;15.796;2023-04-05T07:35:59;98149.66;;;-0.24;68.27
58223;BME280;44020;50.890;15.796;2023-04-05T07:38:27;98148.81;;;-0.16;68.06
58223;BME280;44020;50.890;15.796;2023-04-05T07:40:55;98147.13;;;-0.11;67.74
58223;BME280;44020;50.890;15.796;2023-04-05T07:43:22;98148.24;;;-0.05;67.70
58223;BME280;44020;50.890;15.796;2023-04-05T07:45:51;98150.52;;;0.03;67.45
58223;BME280;44020;50.890;15.796;2023-04-05T07:48:21;98149.52;;;0.09;67.62
58223;BME280;44020;50.890;15.796;2023-04-05T07:50:49;98144.61;;;0.17;67.55
58223;BME280;44020;50.890;15.796;2023-04-05T07:53:19;98144.60;;;0.26;67.46
58223;BME280;44020;50.890;15.796;2023-04-05T07:55:46;98140.91;;;0.34;66.94
58223;BME280;44020;50.890;15.796;2023-04-05T07:58:13;98141.43;;;0.43;67.14
58223;BME280;44020;50.890;15.796;2023-04-05T08:00:41;98141.92;;;0.52;66.96
58223;BME280;44020;50.890;15.796;2023-04-05T08:03:08;98142.60;;;0.60;66.80
58223;BME280;44020;50.890;15.796;2023-04-05T08:05:36;98142.88;;;0.71;66.72
58223;BME280;44020;50.890;15.796;2023-04-05T08:08:03;98144.27;;;0.79;66.44
58223;BME280;44020;50.890;15.796;2023-04-05T08:10:30;98145.61;;;0.88;66.26
58223;BME280;44020;50.890;15.796;2023-04-05T08:12:57;98143.13;;;0.97;65.91
58223;BME280;44020;50.890;15.796;2023-04-05T08:15:25;98139.08;;;1.05;65.83
58223;BME280;44020;50.890;15.796;2023-04-05T08:17:52;98138.64;;;1.15;65.24
58223;BME280;44020;50.890;15.796;2023-04-05T08:20:20;98136.00;;;1.22;64.80
58223;BME280;44020;50.890;15.796;2023-04-05T08:22:47;98141.96;;;1.29;64.03
58223;BME280;44020;50.890;15.796;2023-04-05T08:25:14;98139.79;;;1.32;63.74
58223;BME280;44020;50.890;15.796;2023-04-05T08:27:41;98140.70;;;1.36;64.28
58223;BME280;44020;50.890;15.796;2023-04-05T08:30:08;98139.55;;;1.47;64.12
58223;BME280;44020;50.890;15.796;2023-04-05T08:32:35;98139.15;;;1.56;63.43
58223;BME280;44020;50.890;15.796;2023-04-05T08:35:03;98138.09;;;1.62;63.07
58223;BME280;44020;50.890;15.796;2023-04-05T08:37:33;98133.52;;;1.69;62.79
58223;BME280;44020;50.890;15.796;2023-04-05T08:40:02;98125.85;;;1.75;63.02
58223;BME280;44020;50.890;15.796;2023-04-05T08:42:32;98123.07;;;1.86;63.11
58223;BME280;44020;50.890;15.796;2023-04-05T08:45:01;98124.23;;;2.01;62.77
58223;BME280;44020;50.890;15.796;2023-04-05T08:47:29;98124.08;;;2.12;62.52
58223;BME280;44020;50.890;15.796;2023-04-05T08:49:56;98127.16;;;2.20;62.27
58223;BME280;44020;50.890;15.796;2023-04-05T08:52:24;98123.98;;;2.26;61.78
58223;BME280;44020;50.890;15.796;2023-04-05T08:54:52;98122.81;;;2.30;61.72
58223;BME280;44020;50.890;15.796;2023-04-05T08:57:23;98125.73;;;2.38;61.75
58223;BME280;44020;50.890;15.796;2023-04-05T08:59:52;98129.18;;;2.46;60.88
58223;BME280;44020;50.890;15.796;2023-04-05T09:02:21;98131.09;;;2.46;60.02
58223;BME280;44020;50.890;15.796;2023-04-05T09:04:49;98127.83;;;2.44;59.86
58223;BME280;44020;50.890;15.796;2023-04-05T09:07:17;98126.89;;;2.40;60.20
58223;BME280;44020;50.890;15.796;2023-04-05T09:09:47;98122.15;;;2.41;60.49
58223;BME280;44020;50.890;15.796;2023-04-05T09:12:15;98127.19;;;2.42;60.14
58223;BME280;44020;50.890;15.796;2023-04-05T09:14:42;98126.84;;;2.42;60.59
58223;BME280;44020;50.890;15.796;2023-04-05T09:17:09;98126.95;;;2.39;60.30
58223;BME280;44020;50.890;15.796;2023-04-05T09:19:37;98128.77;;;2.36;60.54
58223;BME280;44020;50.890;15.796;2023-04-05T09:22:05;98127.69;;;2.38;60.55
58223;BME280;44020;50.890;15.796;2023-04-05T09:24:34;98126.21;;;2.39;60.86
58223;BME280;44020;50.890;15.796;2023-04-05T09:27:12;98125.31;;;2.46;60.67
58223;BME280;44020;50.890;15.796;2023-04-05T09:29:40;98122.85;;;2.52;60.41
58223;BME280;44020;50.890;15.796;2023-04-05T09:32:08;98118.14;;;2.57;60.30
58223;BME280;44020;50.890;15.796;2023-04-05T09:34:36;98121.96;;;2.64;60.08
58223;BME280;44020;50.890;15.796;2023-04-05T09:37:14;98123.45;;;2.72;60.32
58223;BME280;44020;50.890;15.796;2023-04-05T09:39:41;98120.66;;;2.82;60.16
58223;BME280;44020;50.890;15.796;2023-04-05T09:42:15;98123.39;;;2.90;59.37
58223;BME280;44020;50.890;15.796;2023-04-05T09:47:20;98118.16;;;3.00;58.67
58223;BME280;44020;50.890;15.796;2023-04-05T09:49:47;98109.83;;;3.07;58.50
58223;BME280;44020;50.890;15.796;2023-04-05T09:52:19;98114.11;;;3.16;58.09
58223;BME280;44020;50.890;15.796;2023-04-05T09:54:46;98113.21;;;3.21;57.79
58223;BME280;44020;50.890;15.796;2023-04-05T09:57:14;98107.29;;;3.25;57.74
58223;BME280;44020;50.890;15.796;2023-04-05T09:59:43;98102.90;;;3.30;57.29
58223;BME280;44020;50.890;15.796;2023-04-05T10:02:10;98100.90;;;3.32;57.31
58223;BME280;44020;50.890;15.796;2023-04-05T10:04:38;98099.73;;;3.41;57.43
58223;BME280;44020;50.890;15.796;2023-04-05T10:07:08;98095.48;;;3.51;57.41
58223;BME280;44020;50.890;15.796;2023-04-05T10:09:36;98099.16;;;3.57;57.14
58223;BME280;44020;50.890;15.796;2023-04-05T10:12:04;98099.54;;;3.66;56.77
58223;BME280;44020;50.890;15.796;2023-04-05T10:14:32;98102.89;;;3.75;56.18
58223;BME280;44020;50.890;15.796;2023-04-05T10:28:26;98077.02;;;4.18;55.18
58223;BME280;44020;50.890;15.796;2023-04-05T10:30:51;98074.90;;;4.23;54.52
58223;BME280;44020;50.890;15.796;2023-04-05T10:33:38;98077.49;;;4.24;53.54
58223;BME280;44020;50.890;15.796;2023-04-05T10:41:14;98077.40;;;4.17;53.51
58223;BME280;44020;50.890;15.796;2023-04-05T10:43:42;98069.36;;;4.16;53.14
58223;BME280;44020;50.890;15.796;2023-04-05T10:46:10;98068.16;;;4.24;53.49
58223;BME280;44020;50.890;15.796;2023-04-05T10:48:43;98061.42;;;4.35;53.24
58223;BME280;44020;50.890;15.796;2023-04-05T10:51:15;98057.52;;;4.49;53.48
58223;BME280;44020;50.890;15.796;2023-04-05T10:53:42;98058.48;;;4.69;53.61
58223;BME280;44020;50.890;15.796;2023-04-05T10:56:09;98056.96;;;4.84;53.45
58223;BME280;44020;50.890;15.796;2023-04-05T10:58:37;98058.92;;;5.00;52.47
58223;BME280;44020;50.890;15.796;2023-04-05T11:01:06;98052.98;;;5.08;52.39
58223;BME280;44020;50.890;15.796;2023-04-05T11:06:25;98045.23;;;5.25;52.10
58223;BME280;44020;50.890;15.796;2023-04-05T11:11:39;98047.94;;;5.31;52.02
58223;BME280;44020;50.890;15.796;2023-04-05T11:14:16;98046.55;;;5.26;51.32
58223;BME280;44020;50.890;15.796;2023-04-05T11:16:45;98044.18;;;5.24;51.65
58223;BME280;44020;50.890;15.796;2023-04-05T11:19:12;98045.11;;;5.24;51.51
58223;BME280;44020;50.890;15.796;2023-04-05T11:21:42;98043.47;;;5.32;51.88
58223;BME280;44020;50.890;15.796;2023-04-05T11:24:10;98041.99;;;5.53;51.51
58223;BME280;44020;50.890;15.796;2023-04-05T11:29:14;98038.59;;;5.55;50.64
58223;BME280;44020;50.890;15.796;2023-04-05T11:31:57;98041.52;;;5.52;50.27
58223;BME280;44020;50.890;15.796;2023-04-05T11:34:25;98045.30;;;5.47;49.48
58223;BME280;44020;50.890;15.796;2023-04-05T11:36:52;98045.15;;;5.38;49.31
58223;BME280;44020;50.890;15.796;2023-04-05T11:42:01;98041.73;;;5.32;49.96
58223;BME280;44020;50.890;15.796;2023-04-05T11:44:38;98045.43;;;5.28;50.48
58223;BME280;44020;50.890;15.796;2023-04-05T11:47:05;98046.40;;;5.21;50.47
58223;BME280;44020;50.890;15.796;2023-04-05T11:49:32;98044.34;;;5.12;50.29
58223;BME280;44020;50.890;15.796;2023-04-05T11:52:08;98044.77;;;5.02;50.18
58223;BME280;44020;50.890;15.796;2023-04-05T11:54:35;98044.59;;;4.94;50.24
58223;BME280;44020;50.890;15.796;2023-04-05T11:57:03;98044.46;;;4.89;50.59
58223;BME280;44020;50.890;15.796;2023-04-05T11:59:32;98043.42;;;4.88;50.82
58223;BME280;44020;50.890;15.796;2023-04-05T12:02:00;98045.50;;;4.93;51.03
58223;BME280;44020;50.890;15.796;2023-04-05T12:04:30;98043.33;;;5.11;51.32
58223;BME280;44020;50.890;15.796;2023-04-05T12:07:13;98046.00;;;5.27;50.52
58223;BME280;44020;50.890;15.796;2023-04-05T12:10:00;98045.48;;;5.31;50.59
58223;BME280;44020;50.890;15.796;2023-04-05T12:12:41;98040.66;;;5.44;50.91
58223;BME280;44020;50.890;15.796;2023-04-05T12:15:11;98047.10;;;5.61;50.21
58223;BME280;44020;50.890;15.796;2023-04-05T12:17:45;98045.95;;;5.72;49.56
58223;BME280;44020;50.890;15.796;2023-04-05T12:20:14;98043.23;;;5.77;49.29
58223;BME280;44020;50.890;15.796;2023-04-05T12:22:42;98043.30;;;5.80;48.86
58223;BME280;44020;50.890;15.796;2023-04-05T12:25:09;98040.63;;;5.72;48.73
58223;BME280;44020;50.890;15.796;2023-04-05T12:27:37;98032.84;;;5.85;49.81
58223;BME280;44020;50.890;15.796;2023-04-05T12:30:15;98039.38;;;5.92;49.94
58223;BME280;44020;50.890;15.796;2023-04-05T12:32:48;98033.77;;;5.96;49.72
58223;BME280;44020;50.890;15.796;2023-04-05T12:35:17;98029.73;;;6.07;50.58
58223;BME280;44020;50.890;15.796;2023-04-05T12:37:44;98032.31;;;6.27;50.56
58223;BME280;44020;50.890;15.796;2023-04-05T12:40:12;98031.01;;;6.43;50.25
58223;BME280;44020;50.890;15.796;2023-04-05T12:42:40;98032.38;;;6.55;50.31
58223;BME280;44020;50.890;15.796;2023-04-05T12:45:11;98027.77;;;6.59;50.35
58223;BME280;44020;50.890;15.796;2023-04-05T12:47:48;98026.70;;;6.63;50.06
58223;BME280;44020;50.890;15.796;2023-04-05T12:50:17;98027.25;;;6.70;49.93
58223;BME280;44020;50.890;15.796;2023-04-05T12:52:52;98022.48;;;6.62;49.47
58223;BME280;44020;50.890;15.796;2023-04-05T12:55:19;98023.15;;;6.56;49.90
58223;BME280;44020;50.890;15.796;2023-04-05T12:57:51;98022.58;;;6.57;50.12
58223;BME280;44020;50.890;15.796;2023-04-05T13:00:19;98022.63;;;6.56;50.12
58223;BME280;44020;50.890;15.796;2023-04-05T13:02:50;98020.79;;;6.64;50.06
58223;BME280;44020;50.890;15.796;2023-04-05T13:05:23;98018.11;;;6.69;49.55
58223;BME280;44020;50.890;15.796;2023-04-05T13:07:50;98011.50;;;6.66;49.55
58223;BME280;44020;50.890;15.796;2023-04-05T13:10:18;98015.23;;;6.66;49.69
58223;BME280;44020;50.890;15.796;2023-04-05T13:12:45;98010.33;;;6.65;49.65
58223;BME280;44020;50.890;15.796;2023-04-05T13:15:13;98007.25;;;6.63;49.86
58223;BME280;44020;50.890;15.796;2023-04-05T13:17:41;98007.29;;;6.66;49.45
58223;BME280;44020;50.890;15.796;2023-04-05T13:20:09;98003.85;;;6.75;49.58
58223;BME280;44020;50.890;15.796;2023-04-05T13:22:38;98000.13;;;6.85;48.80
58223;BME280;44020;50.890;15.796;2023-04-05T13:25:05;98001.07;;;6.95;48.28
58223;BME280;44020;50.890;15.796;2023-04-05T13:27:32;97992.30;;;6.91;48.70
58223;BME280;44020;50.890;15.796;2023-04-05T13:30:00;97995.44;;;6.92;48.37
58223;BME280;44020;50.890;15.796;2023-04-05T13:32:27;97994.54;;;6.81;48.75
58223;BME280;44020;50.890;15.796;2023-04-05T13:34:55;97992.52;;;6.69;48.72
58223;BME280;44020;50.890;15.796;2023-04-05T13:37:22;97997.74;;;6.59;48.72
58223;BME280;44020;50.890;15.796;2023-04-05T13:39:50;97996.83;;;6.46;48.74